createdAt,value
2023-07-02T00:00:35.332Z,16.03
2023-07-02T00:03:06.224Z,16.02
2023-07-02T00:05:36.819Z,15.94
2023-07-02T00:08:07.164Z,15.84
2023-07-02T00:10:38.035Z,15.79
2023-07-02T00:13:08.220Z,15.78
2023-07-02T00:15:44.429Z,15.76
2023-07-02T00:18:18.892Z,15.78
2023-07-02T00:20:49.664Z,15.75
2023-07-02T00:23:19.985Z,15.83
2023-07-02T00:25:50.952Z,15.86
2023-07-02T00:28:20.982Z,15.89
2023-07-02T00:30:51.915Z,15.93
2023-07-02T00:33:22.126Z,15.93
2023-07-02T00:35:51.990Z,15.92
2023-07-02T00:38:22.434Z,15.95
2023-07-02T00:40:52.459Z,15.95
2023-07-02T00:43:22.866Z,15.91
2023-07-02T00:45:52.956Z,15.88
2023-07-02T00:48:24.031Z,15.85
2023-07-02T00:50:54.945Z,15.91
2023-07-02T00:53:25.536Z,15.86
2023-07-02T00:55:55.564Z,15.89
2023-07-02T00:58:26.123Z,15.89
2023-07-02T01:00:58.885Z,15.88
2023-07-02T01:03:29.320Z,15.83
2023-07-02T01:06:00.141Z,15.72
2023-07-02T01:08:31.097Z,15.61
2023-07-02T01:11:01.846Z,15.49
2023-07-02T01:13:32.434Z,15.52
2023-07-02T01:16:02.627Z,15.59
2023-07-02T01:18:33.651Z,15.59
2023-07-02T01:21:03.963Z,15.61
2023-07-02T01:23:34.794Z,15.52
2023-07-02T01:26:05.898Z,15.37
2023-07-02T01:28:39.305Z,15.40
2023-07-02T01:31:09.253Z,15.31
2023-07-02T01:33:39.360Z,15.22
2023-07-02T01:36:10.322Z,15.15
2023-07-02T01:38:41.212Z,15.13
2023-07-02T01:41:11.605Z,15.11
2023-07-02T01:43:41.710Z,15.19
2023-07-02T01:46:12.163Z,15.26
2023-07-02T01:48:42.224Z,15.22
2023-07-02T01:51:12.659Z,15.16
2023-07-02T01:53:43.041Z,15.15
2023-07-02T01:56:13.584Z,15.06
2023-07-02T01:58:43.675Z,15.05
2023-07-02T02:01:14.203Z,15.03
2023-07-02T02:03:44.597Z,15.08
2023-07-02T02:06:15.256Z,15.12
2023-07-02T02:08:45.832Z,15.12
2023-07-02T02:11:16.286Z,15.08
2023-07-02T02:13:46.361Z,15.09
2023-07-02T02:16:16.908Z,15.06
2023-07-02T02:18:47.031Z,15.11
2023-07-02T02:21:17.540Z,15.08
2023-07-02T02:23:47.815Z,15.08
2023-07-02T02:26:18.460Z,15.04
2023-07-02T02:28:48.465Z,14.96
2023-07-02T02:31:19.287Z,14.97
2023-07-02T02:33:49.741Z,15.03
2023-07-02T02:36:20.868Z,15.15
2023-07-02T02:38:51.063Z,15.23
2023-07-02T02:41:22.077Z,15.36
2023-07-02T02:43:55.496Z,15.49
2023-07-02T02:46:26.537Z,15.61
2023-07-02T02:48:56.839Z,15.68
2023-07-02T02:51:27.291Z,15.75
2023-07-02T02:53:57.338Z,15.80
2023-07-02T02:56:27.878Z,15.78
2023-07-02T02:58:57.949Z,15.77
2023-07-02T03:01:33.033Z,15.72
2023-07-02T03:04:03.263Z,15.73
2023-07-02T03:06:33.850Z,15.76
2023-07-02T03:09:04.037Z,15.79
2023-07-02T03:11:35.010Z,15.82
2023-07-02T03:14:05.081Z,15.87
2023-07-02T03:16:36.203Z,15.85
2023-07-02T03:19:06.257Z,15.76
2023-07-02T03:21:36.719Z,15.60
2023-07-02T03:24:06.913Z,15.64
2023-07-02T03:26:37.293Z,15.66
2023-07-02T03:29:07.435Z,15.60
2023-07-02T03:31:37.882Z,15.60
2023-07-02T03:34:12.176Z,15.55
2023-07-02T03:36:42.836Z,15.57
2023-07-02T03:39:13.112Z,15.57
2023-07-02T03:41:43.544Z,15.54
2023-07-02T03:44:14.176Z,15.55
2023-07-02T03:46:45.451Z,15.56
2023-07-02T03:49:15.562Z,15.53
2023-07-02T03:51:46.049Z,15.59
2023-07-02T03:54:16.127Z,15.64
2023-07-02T03:56:46.567Z,15.70
2023-07-02T03:59:16.657Z,15.79
2023-07-02T04:01:47.301Z,15.85
2023-07-02T04:04:17.518Z,15.88
2023-07-02T04:06:48.344Z,15.93
2023-07-02T04:09:21.296Z,15.98
2023-07-02T04:11:51.685Z,16.02
2023-07-02T04:14:21.732Z,16.09
2023-07-02T04:16:52.157Z,16.17
2023-07-02T04:19:22.212Z,16.16
2023-07-02T04:21:52.597Z,16.15
2023-07-02T04:24:22.952Z,16.11
2023-07-02T04:27:09.688Z,16.12
2023-07-02T04:29:45.347Z,16.16
2023-07-02T04:32:15.759Z,16.18
2023-07-02T04:34:45.880Z,16.20
2023-07-02T04:37:17.460Z,16.24
2023-07-02T04:39:48.469Z,16.24
2023-07-02T04:42:18.874Z,16.28
2023-07-02T04:44:48.680Z,16.28
2023-07-02T04:47:19.169Z,16.29
2023-07-02T04:49:49.432Z,16.29
2023-07-02T04:52:19.892Z,16.30
2023-07-02T04:54:50.007Z,16.27
2023-07-02T04:57:20.570Z,16.24
2023-07-02T04:59:50.585Z,16.09
2023-07-02T05:02:21.117Z,16.02
2023-07-02T05:04:51.366Z,15.92
2023-07-02T05:07:21.818Z,15.88
2023-07-02T05:09:54.259Z,15.77
2023-07-02T05:12:25.521Z,15.74
2023-07-02T05:14:55.643Z,15.78
2023-07-02T05:17:26.259Z,15.82
2023-07-02T05:19:56.312Z,15.78
2023-07-02T05:22:26.771Z,15.79
2023-07-02T05:24:56.802Z,15.82
2023-07-02T05:27:27.212Z,15.79
2023-07-02T05:29:57.390Z,15.80
2023-07-02T05:32:27.895Z,15.81
2023-07-02T05:34:57.970Z,15.85
2023-07-02T05:37:28.449Z,15.91
2023-07-02T05:39:58.518Z,15.96
2023-07-02T05:42:28.881Z,16.01
2023-07-02T05:44:58.838Z,16.07
2023-07-02T05:47:30.703Z,16.12
2023-07-02T05:50:01.062Z,16.16
2023-07-02T05:52:30.860Z,16.21
2023-07-02T05:55:01.541Z,16.24
2023-07-02T05:57:31.613Z,16.31
2023-07-02T06:00:02.125Z,16.35
2023-07-02T06:02:41.278Z,16.36
2023-07-02T06:05:11.938Z,16.43
2023-07-02T06:07:42.039Z,16.45
2023-07-02T06:10:12.379Z,16.48
2023-07-02T06:12:42.869Z,16.47
2023-07-02T06:15:13.384Z,16.45
2023-07-02T06:17:43.999Z,16.47
2023-07-02T06:20:14.520Z,16.48
2023-07-02T06:22:45.003Z,16.49
2023-07-02T06:25:15.994Z,16.49
2023-07-02T06:27:46.380Z,16.51
2023-07-02T06:30:16.595Z,16.54
2023-07-02T06:32:46.967Z,16.57
2023-07-02T06:35:17.010Z,16.56
2023-07-02T06:37:47.449Z,16.55
2023-07-02T06:40:17.767Z,16.56
2023-07-02T06:42:48.105Z,16.59
2023-07-02T06:45:17.964Z,16.60
2023-07-02T06:47:48.506Z,16.58
2023-07-02T06:50:18.581Z,16.52
2023-07-02T06:52:49.035Z,16.51
2023-07-02T06:55:19.029Z,16.54
2023-07-02T06:57:49.443Z,16.35
2023-07-02T07:00:19.575Z,16.36
2023-07-02T07:02:50.077Z,16.21
2023-07-02T07:05:20.097Z,16.24
2023-07-02T07:07:50.556Z,16.25
2023-07-02T07:10:22.544Z,16.19
2023-07-02T07:12:52.925Z,16.24
2023-07-02T07:15:23.035Z,16.34
2023-07-02T07:17:53.502Z,16.37
2023-07-02T07:20:23.707Z,16.38
2023-07-02T07:22:54.224Z,16.40
2023-07-02T07:25:24.267Z,16.39
2023-07-02T07:27:54.672Z,16.43
2023-07-02T07:30:25.129Z,16.49
2023-07-02T07:32:56.069Z,16.54
2023-07-02T07:35:26.563Z,16.61
2023-07-02T07:37:57.059Z,16.65
2023-07-02T07:40:28.640Z,16.62
2023-07-02T07:42:58.656Z,16.58
2023-07-02T07:45:29.200Z,16.54
2023-07-02T07:47:59.191Z,16.60
2023-07-02T07:50:29.718Z,16.63
2023-07-02T07:52:59.701Z,16.64
2023-07-02T07:55:33.103Z,16.67
2023-07-02T07:58:03.103Z,16.69
2023-07-02T08:00:33.532Z,16.75
2023-07-02T08:03:05.121Z,16.76
2023-07-02T08:05:35.835Z,16.77
2023-07-02T08:08:06.014Z,16.78
2023-07-02T08:10:36.572Z,16.79
2023-07-02T08:13:06.823Z,16.83
2023-07-02T08:15:37.459Z,16.81
2023-07-02T08:18:09.583Z,16.84
2023-07-02T08:20:40.086Z,16.86
2023-07-02T08:23:10.290Z,16.83
2023-07-02T08:25:40.817Z,16.80
2023-07-02T08:28:10.856Z,16.71
2023-07-02T08:30:41.320Z,16.75
2023-07-02T08:33:13.853Z,16.70
2023-07-02T08:35:44.334Z,16.67
2023-07-02T08:38:14.393Z,16.62
2023-07-02T08:40:44.818Z,16.60
2023-07-02T08:43:14.947Z,16.67
2023-07-02T08:45:45.888Z,16.66
2023-07-02T08:48:16.014Z,16.62
2023-07-02T08:50:46.901Z,16.64
2023-07-02T08:53:17.265Z,16.64
2023-07-02T08:55:47.923Z,16.63
2023-07-02T08:58:17.954Z,16.62
2023-07-02T09:01:11.494Z,16.55
2023-07-02T09:03:42.871Z,16.59
2023-07-02T09:06:14.360Z,16.54
2023-07-02T09:08:44.579Z,16.55
2023-07-02T09:11:18.068Z,16.56
2023-07-02T09:13:55.184Z,16.42
2023-07-02T09:16:33.966Z,16.40
2023-07-02T09:19:09.988Z,16.35
2023-07-02T09:21:49.453Z,16.36
2023-07-02T09:24:22.624Z,16.23
2023-07-02T09:26:53.259Z,16.22
2023-07-02T09:29:32.934Z,16.25
2023-07-02T09:32:10.897Z,16.28
2023-07-02T09:34:44.045Z,16.13
2023-07-02T09:37:14.168Z,16.15
2023-07-02T09:39:44.886Z,16.12
2023-07-02T09:42:15.766Z,16.18
2023-07-02T09:44:46.379Z,16.20
2023-07-02T09:47:20.270Z,16.17
2023-07-02T09:49:57.786Z,16.14
2023-07-02T09:52:29.891Z,16.15
2023-07-02T09:55:00.513Z,16.19
2023-07-02T09:57:33.443Z,16.26
2023-07-02T10:00:04.808Z,16.31
2023-07-02T10:02:35.679Z,16.30
2023-07-02T10:05:07.241Z,16.31
2023-07-02T10:07:37.609Z,16.27
2023-07-02T10:10:08.749Z,16.29
2023-07-02T10:12:49.002Z,16.21
2023-07-02T10:15:32.925Z,16.22
2023-07-02T10:18:06.469Z,16.24
2023-07-02T10:20:39.532Z,16.28
2023-07-02T10:23:10.111Z,16.34
2023-07-02T10:25:41.306Z,16.38
2023-07-02T10:28:20.108Z,16.42
2023-07-02T10:30:51.033Z,16.46
2023-07-02T10:33:22.832Z,16.51
2023-07-02T10:35:53.540Z,16.58
2023-07-02T10:38:25.684Z,16.61
2023-07-02T10:41:03.737Z,16.69
2023-07-02T10:43:35.092Z,16.72
2023-07-02T10:46:05.709Z,16.74
2023-07-02T10:48:35.810Z,16.75
2023-07-02T10:51:15.361Z,16.79
2023-07-02T10:53:45.336Z,16.79
2023-07-02T10:56:19.580Z,16.84
2023-07-02T10:58:53.604Z,16.86
2023-07-02T11:01:27.147Z,16.84
2023-07-02T11:04:07.393Z,16.86
2023-07-02T11:06:37.884Z,16.86
2023-07-02T11:09:19.881Z,16.92
2023-07-02T11:12:01.670Z,16.96
2023-07-02T11:14:39.126Z,17.04
2023-07-02T11:17:10.036Z,17.02
2023-07-02T11:19:40.101Z,17.04
2023-07-02T11:22:10.543Z,17.07
2023-07-02T11:24:41.672Z,17.11
2023-07-02T11:27:12.083Z,17.13
2023-07-02T11:29:42.114Z,17.18
2023-07-02T11:32:13.886Z,17.22
2023-07-02T11:34:43.889Z,17.29
2023-07-02T11:37:13.727Z,17.40
2023-07-02T11:39:46.189Z,17.48
2023-07-02T11:42:16.232Z,17.53
2023-07-02T11:44:46.755Z,17.58
2023-07-02T11:47:16.764Z,17.60
2023-07-02T11:49:47.169Z,17.59
2023-07-02T11:52:17.808Z,17.51
2023-07-02T11:54:48.233Z,17.48
2023-07-02T11:57:18.248Z,17.41
2023-07-02T11:59:48.673Z,17.35
2023-07-02T12:02:18.905Z,17.38
2023-07-02T12:04:49.443Z,17.41
2023-07-02T12:07:19.453Z,17.45
2023-07-02T12:09:49.925Z,17.45
2023-07-02T12:12:19.879Z,17.47
2023-07-02T12:14:50.399Z,17.43
2023-07-02T12:17:20.432Z,17.41
2023-07-02T12:19:51.116Z,17.37
2023-07-02T12:22:24.079Z,17.39
2023-07-02T12:24:58.037Z,17.15
2023-07-02T12:27:29.286Z,17.18
2023-07-02T12:29:59.743Z,17.25
2023-07-02T12:32:29.824Z,17.23
2023-07-02T12:35:00.280Z,17.23
2023-07-02T12:37:30.318Z,17.25
2023-07-02T12:40:00.788Z,17.40
2023-07-02T12:42:30.757Z,17.29
2023-07-02T12:45:01.166Z,17.23
2023-07-02T12:47:33.645Z,17.42
2023-07-02T12:50:04.566Z,17.27
2023-07-02T12:52:35.022Z,17.23
2023-07-02T12:55:05.731Z,17.27
2023-07-02T12:57:35.807Z,17.16
2023-07-02T13:00:11.194Z,17.11
2023-07-02T13:02:53.728Z,17.13
2023-07-02T13:05:29.094Z,17.38
2023-07-02T13:07:59.234Z,17.58
2023-07-02T13:10:29.780Z,17.73
2023-07-02T13:13:10.182Z,17.80
2023-07-02T13:15:49.466Z,17.72
2023-07-02T13:18:19.698Z,17.97
2023-07-02T13:20:50.264Z,17.99
2023-07-02T13:23:20.274Z,18.08
2023-07-02T13:25:50.431Z,18.20
2023-07-02T13:28:23.474Z,18.43
2023-07-02T13:30:53.601Z,18.47
2023-07-02T13:33:24.005Z,18.48
2023-07-02T13:35:54.072Z,18.32
2023-07-02T13:38:24.540Z,18.31
2023-07-02T13:40:54.664Z,18.07
2023-07-02T13:43:25.697Z,18.27
2023-07-02T13:45:56.609Z,18.41
2023-07-02T13:48:28.541Z,18.31
2023-07-02T13:50:59.072Z,18.41
2023-07-02T13:53:29.542Z,18.57
2023-07-02T13:55:59.545Z,18.62
2023-07-02T13:58:48.745Z,18.71
2023-07-02T14:01:18.846Z,18.81
2023-07-02T14:03:49.213Z,18.66
2023-07-02T14:06:19.457Z,18.63
2023-07-02T14:08:49.963Z,18.60
2023-07-02T14:11:20.446Z,18.58
2023-07-02T14:13:50.985Z,18.85
2023-07-02T14:16:21.546Z,18.94
2023-07-02T14:18:52.275Z,19.19
2023-07-02T14:21:22.532Z,19.06
2023-07-02T14:23:53.060Z,19.23
2023-07-02T14:26:23.089Z,18.84
2023-07-02T14:28:53.671Z,18.81
2023-07-02T14:31:24.021Z,18.73
2023-07-02T14:33:54.437Z,18.76
2023-07-02T14:36:24.275Z,18.80
2023-07-02T14:38:54.725Z,19.02
2023-07-02T14:41:24.719Z,19.26
2023-07-02T14:43:55.388Z,19.42
2023-07-02T14:46:25.518Z,19.42
2023-07-02T14:48:55.937Z,19.55
2023-07-02T14:51:26.380Z,19.53
2023-07-02T14:53:57.752Z,19.48
2023-07-02T14:56:27.812Z,19.27
2023-07-02T14:58:58.480Z,19.49
2023-07-02T15:01:28.560Z,19.27
2023-07-02T15:03:58.593Z,19.38
2023-07-02T15:06:30.308Z,19.44
2023-07-02T15:09:00.568Z,19.63
2023-07-02T15:11:30.543Z,19.68
2023-07-02T15:14:01.642Z,19.89
2023-07-02T15:16:31.925Z,19.96
2023-07-02T15:19:02.359Z,20.17
2023-07-02T15:21:32.951Z,20.37
2023-07-02T15:24:03.432Z,20.60
2023-07-02T15:26:33.468Z,20.46
2023-07-02T15:29:04.219Z,20.40
2023-07-02T15:31:34.839Z,20.60
2023-07-02T15:34:05.323Z,20.61
2023-07-02T15:36:37.865Z,20.09
2023-07-02T15:39:08.549Z,20.16
2023-07-02T15:41:41.218Z,20.08
2023-07-02T15:44:11.640Z,20.02
2023-07-02T15:46:41.759Z,19.97
2023-07-02T15:49:12.356Z,20.11
2023-07-02T15:51:42.916Z,20.25
2023-07-02T15:54:13.578Z,20.32
2023-07-02T15:56:43.653Z,20.54
2023-07-02T15:59:14.089Z,20.69
2023-07-02T16:01:46.922Z,20.66
2023-07-02T16:04:17.664Z,20.51
2023-07-02T16:06:48.109Z,20.85
2023-07-02T16:09:18.546Z,21.06
2023-07-02T16:11:48.559Z,21.04
2023-07-02T16:14:20.645Z,20.83
2023-07-02T16:16:56.316Z,20.73
2023-07-02T16:19:26.830Z,20.36
2023-07-02T16:21:57.088Z,20.23
2023-07-02T16:24:33.045Z,20.38
2023-07-02T16:27:03.983Z,20.49
2023-07-02T16:29:34.356Z,20.28
2023-07-02T16:32:04.799Z,20.04
2023-07-02T16:34:35.324Z,19.97
2023-07-02T16:37:05.502Z,20.10
2023-07-02T16:39:35.886Z,20.14
2023-07-02T16:42:05.975Z,19.96
2023-07-02T16:44:38.396Z,20.04
2023-07-02T16:47:09.782Z,19.97
2023-07-02T16:49:40.163Z,19.95
2023-07-02T16:52:10.450Z,20.10
2023-07-02T16:54:41.552Z,20.24
2023-07-02T16:57:11.593Z,20.48
2023-07-02T16:59:42.107Z,20.55
2023-07-02T17:02:12.462Z,20.76
2023-07-02T17:04:42.956Z,20.94
2023-07-02T17:07:12.894Z,21.18
2023-07-02T17:09:47.754Z,21.19
2023-07-02T17:12:20.891Z,21.14
2023-07-02T17:14:54.958Z,21.16
2023-07-02T17:17:29.307Z,21.26
2023-07-02T17:20:01.341Z,21.42
2023-07-02T17:22:33.698Z,21.47
2023-07-02T17:25:05.066Z,21.58
2023-07-02T17:27:35.256Z,21.60
2023-07-02T17:30:08.277Z,21.57
2023-07-02T17:32:38.472Z,21.54
2023-07-02T17:35:15.641Z,21.57
2023-07-02T17:37:45.764Z,21.51
2023-07-02T17:40:16.261Z,21.49
2023-07-02T17:42:46.574Z,21.41
2023-07-02T17:45:19.173Z,21.30
2023-07-02T17:47:49.399Z,21.27
2023-07-02T17:50:20.714Z,21.26
2023-07-02T17:52:51.786Z,21.26
2023-07-02T17:59:50.917Z,20.99
2023-07-02T18:02:21.590Z,21.10
2023-07-02T18:04:51.854Z,21.06
2023-07-02T18:07:23.117Z,21.05
2023-07-02T18:09:55.904Z,21.27
2023-07-02T18:12:29.804Z,21.37
2023-07-02T18:15:01.204Z,21.53
2023-07-02T18:17:31.650Z,21.59
2023-07-02T18:20:02.448Z,21.67
2023-07-02T18:22:33.070Z,21.73
2023-07-02T18:25:03.236Z,21.77
2023-07-02T18:27:33.696Z,21.83
2023-07-02T18:30:03.710Z,21.89
2023-07-02T18:32:34.545Z,21.89
2023-07-02T18:35:05.083Z,21.81
2023-07-02T18:37:35.557Z,21.73
2023-07-02T18:40:07.499Z,21.69
2023-07-02T18:42:37.903Z,21.56
2023-07-02T18:45:08.541Z,21.50
2023-07-02T18:47:39.027Z,21.37
2023-07-02T18:50:09.448Z,21.35
2023-07-02T18:52:39.954Z,21.33
2023-07-02T18:55:11.256Z,21.28
2023-07-02T18:57:43.150Z,21.09
2023-07-02T19:00:14.669Z,20.83
2023-07-02T19:02:49.617Z,20.84
2023-07-02T19:05:21.974Z,21.19
2023-07-02T19:07:53.877Z,21.33
2023-07-02T19:10:24.048Z,21.46
2023-07-02T19:12:54.429Z,21.61
2023-07-02T19:15:24.543Z,21.65
2023-07-02T19:17:55.386Z,21.43
2023-07-02T19:20:25.582Z,21.22
2023-07-02T19:22:56.175Z,20.93
2023-07-02T19:25:26.312Z,20.69
2023-07-02T19:27:56.793Z,20.46
2023-07-02T19:30:29.339Z,20.13
2023-07-02T19:33:00.904Z,19.89
2023-07-02T19:35:32.231Z,19.77
2023-07-02T19:38:02.846Z,19.63
2023-07-02T19:40:33.049Z,19.49
2023-07-02T19:43:03.662Z,19.43
2023-07-02T19:45:34.511Z,19.40
2023-07-02T19:48:06.502Z,19.39
2023-07-02T19:50:36.681Z,19.32
2023-07-02T19:53:07.116Z,19.40
2023-07-02T19:55:41.324Z,19.28
2023-07-02T19:58:11.909Z,19.25
2023-07-02T20:00:44.497Z,19.18
2023-07-02T20:03:15.096Z,19.06
2023-07-02T20:05:45.538Z,18.86
2023-07-02T20:08:16.041Z,18.63
2023-07-02T20:10:46.107Z,18.44
2023-07-02T20:13:16.471Z,18.26
2023-07-02T20:15:46.412Z,18.14
2023-07-02T20:18:17.177Z,18.03
2023-07-02T20:20:47.276Z,17.91
2023-07-02T20:23:17.689Z,17.79
2023-07-02T20:25:50.373Z,17.69
2023-07-02T20:28:21.134Z,17.56
2023-07-02T20:30:51.245Z,17.45
2023-07-02T20:33:22.494Z,17.36
2023-07-02T20:35:53.393Z,17.24
2023-07-02T20:38:23.733Z,17.20
2023-07-02T20:41:03.711Z,17.09
2023-07-02T20:43:44.494Z,16.99
2023-07-02T20:46:17.706Z,16.89
2023-07-02T20:48:48.196Z,16.82
2023-07-02T20:51:18.277Z,16.78
2023-07-02T20:53:48.724Z,16.69
2023-07-02T20:56:18.984Z,16.62
2023-07-02T20:58:49.526Z,16.58
2023-07-02T21:01:19.647Z,16.51
2023-07-02T21:03:50.614Z,16.51
2023-07-02T21:06:20.841Z,16.48
2023-07-02T21:08:51.408Z,16.46
2023-07-02T21:11:32.637Z,16.35
2023-07-02T21:14:06.400Z,16.30
2023-07-02T21:16:37.370Z,16.25
2023-07-02T21:19:07.955Z,16.12
2023-07-02T21:21:41.320Z,16.04
2023-07-02T21:24:12.063Z,16.05
2023-07-02T21:26:42.179Z,16.01
2023-07-02T21:29:13.210Z,15.97
2023-07-02T21:31:44.221Z,15.95
2023-07-02T21:34:14.690Z,15.93
2023-07-02T21:36:44.551Z,15.90
2023-07-02T21:39:14.972Z,15.91
2023-07-02T21:41:45.066Z,15.91
2023-07-02T21:44:16.015Z,15.97
2023-07-02T21:46:46.373Z,16.03
2023-07-02T21:49:16.899Z,16.07
2023-07-02T21:51:46.913Z,16.14
2023-07-02T21:54:17.375Z,16.17
2023-07-02T21:56:47.514Z,16.18
2023-07-02T21:59:26.111Z,16.23
2023-07-02T22:01:57.301Z,16.30
2023-07-02T22:04:28.027Z,16.29
2023-07-02T22:06:59.299Z,16.31
2023-07-02T22:09:29.671Z,16.26
2023-07-02T22:11:59.647Z,16.20
2023-07-02T22:14:30.157Z,16.14
2023-07-02T22:17:09.574Z,16.10
2023-07-02T22:19:40.237Z,16.08
2023-07-02T22:22:11.654Z,16.15
2023-07-02T22:24:42.042Z,16.22
2023-07-02T22:27:12.147Z,16.21
2023-07-02T22:29:45.241Z,16.26
2023-07-02T22:32:14.862Z,16.29
2023-07-02T22:34:44.633Z,16.23
2023-07-02T22:37:15.156Z,16.17
2023-07-02T22:39:45.209Z,16.18
2023-07-02T22:42:15.706Z,16.13
2023-07-02T22:44:45.641Z,16.17
2023-07-02T22:47:16.270Z,16.19
2023-07-02T22:49:47.604Z,16.23
2023-07-02T22:52:20.520Z,16.24
2023-07-02T22:54:54.088Z,16.24
2023-07-02T22:57:25.457Z,16.12
2023-07-02T22:59:55.457Z,16.02
2023-07-02T23:02:26.162Z,15.90
2023-07-02T23:04:56.332Z,15.78
2023-07-02T23:07:26.852Z,15.74
2023-07-02T23:09:56.829Z,15.77
2023-07-02T23:12:27.350Z,15.81
2023-07-02T23:14:57.401Z,15.75
2023-07-02T23:17:27.969Z,15.73
2023-07-02T23:19:58.020Z,15.68
2023-07-02T23:22:27.835Z,15.61
2023-07-02T23:25:00.112Z,15.64
2023-07-02T23:27:30.167Z,15.66
2023-07-02T23:30:01.076Z,15.73
2023-07-02T23:32:31.109Z,15.73
2023-07-02T23:35:01.009Z,15.66
2023-07-02T23:37:31.440Z,15.68
2023-07-02T23:40:01.908Z,15.74
2023-07-02T23:42:32.390Z,15.75
2023-07-02T23:45:02.550Z,15.72
2023-07-02T23:47:33.190Z,15.63
2023-07-02T23:50:03.817Z,15.53
2023-07-02T23:52:38.623Z,15.43
2023-07-02T23:55:11.070Z,15.17
2023-07-02T23:57:42.165Z,15.06
